sensor_id;sensor_type;location;lat;lon;timestamp;pressure;altitude;pressure_sealevel;temperature;humidity
8451;BME280;4262;50.980;13.892;2023-02-26T06:02:06;50329.72;;;-142.97;24.20
8451;BME280;4262;50.980;13.892;2023-02-26T06:04:42;50306.34;;;-142.97;23.80
8451;BME280;4262;50.980;13.892;2023-02-26T06:07:09;50296.59;;;-142.97;23.78
8451;BME280;4262;50.980;13.892;2023-02-26T06:09:37;50304.38;;;-142.97;24.11
8451;BME280;4262;50.980;13.892;2023-02-26T06:12:05;50314.13;;;-142.97;23.80
8451;BME280;4262;50.980;13.892;2023-02-26T06:14:34;50294.63;;;-142.97;23.95
8451;BME280;4262;50.980;13.892;2023-02-26T06:17:01;50312.19;;;-142.97;24.84
8451;BME280;4262;50.980;13.892;2023-02-26T06:19:29;50337.53;;;-142.97;24.68
8451;BME280;4262;50.980;13.892;2023-02-26T06:21:56;50296.59;;;-142.97;24.96
8451;BME280;4262;50.980;13.892;2023-02-26T06:24:23;50304.38;;;-142.97;24.55
8451;BME280;4262;50.980;13.892;2023-02-26T06:26:49;50306.34;;;-142.97;24.02
8451;BME280;4262;50.980;13.892;2023-02-26T06:29:16;50325.84;;;-142.97;24.26
8451;BME280;4262;50.980;13.892;2023-02-26T06:31:45;50320.00;;;-142.97;24.73
8451;BME280;4262;50.980;13.892;2023-02-26T06:34:12;50296.59;;;-142.97;24.53
8451;BME280;4262;50.980;13.892;2023-02-26T06:36:40;50296.59;;;-142.97;24.28
8451;BME280;4262;50.980;13.892;2023-02-26T06:39:07;50290.75;;;-142.97;24.65
8451;BME280;4262;50.980;13.892;2023-02-26T06:41:34;50281.00;;;-142.97;25.67
8451;BME280;4262;50.980;13.892;2023-02-26T06:44:01;50288.78;;;-142.97;25.20
8451;BME280;4262;50.980;13.892;2023-02-26T06:46:28;50298.53;;;-142.97;24.60
8451;BME280;4262;50.980;13.892;2023-02-26T06:48:56;50318.03;;;-142.97;25.84
8451;BME280;4262;50.980;13.892;2023-02-26T06:51:23;50294.63;;;-142.97;25.51
8451;BME280;4262;50.980;13.892;2023-02-26T06:53:52;50282.94;;;-142.97;25.35
8451;BME280;4262;50.980;13.892;2023-02-26T06:56:19;50323.88;;;-142.97;24.99
8451;BME280;4262;50.980;13.892;2023-02-26T06:58:45;50316.09;;;-142.97;24.83
8451;BME280;4262;50.980;13.892;2023-02-26T07:01:12;50310.25;;;-142.97;25.15
8451;BME280;4262;50.980;13.892;2023-02-26T07:03:39;50314.13;;;-142.97;25.13
8451;BME280;4262;50.980;13.892;2023-02-26T07:06:06;50263.44;;;-142.97;24.80
8451;BME280;4262;50.980;13.892;2023-02-26T07:08:34;50284.91;;;-142.97;25.74
8451;BME280;4262;50.980;13.892;2023-02-26T07:11:03;50294.63;;;-142.97;25.08
8451;BME280;4262;50.980;13.892;2023-02-26T07:13:30;50323.88;;;-142.97;24.83
8451;BME280;4262;50.980;13.892;2023-02-26T07:15:57;50298.53;;;-142.97;24.89
8451;BME280;4262;50.980;13.892;2023-02-26T07:18:23;50296.59;;;-142.97;24.52
8451;BME280;4262;50.980;13.892;2023-02-26T07:20:50;50312.19;;;-142.97;24.14
8451;BME280;4262;50.980;13.892;2023-02-26T07:23:18;50281.00;;;-142.97;24.80
8451;BME280;4262;50.980;13.892;2023-02-26T07:25:47;50300.50;;;-142.97;24.20
8451;BME280;4262;50.980;13.892;2023-02-26T07:28:15;50304.38;;;-142.97;24.33
8451;BME280;4262;50.980;13.892;2023-02-26T07:30:42;50327.78;;;-142.97;24.91
8451;BME280;4262;50.980;13.892;2023-02-26T07:33:09;50292.69;;;-142.97;24.93
8451;BME280;4262;50.980;13.892;2023-02-26T07:35:37;50325.84;;;-142.97;24.21
8451;BME280;4262;50.980;13.892;2023-02-26T07:38:05;50271.25;;;-142.97;23.98
8451;BME280;4262;50.980;13.892;2023-02-26T07:40:32;50290.75;;;-142.97;25.02
8451;BME280;4262;50.980;13.892;2023-02-26T07:42:58;50292.69;;;-142.97;24.35
8451;BME280;4262;50.980;13.892;2023-02-26T07:45:26;50304.38;;;-142.97;24.46
8451;BME280;4262;50.980;13.892;2023-02-26T07:47:53;50292.69;;;-142.97;25.18
8451;BME280;4262;50.980;13.892;2023-02-26T07:50:20;50298.53;;;-142.97;24.19
8451;BME280;4262;50.980;13.892;2023-02-26T07:52:51;50306.34;;;-142.97;24.57
8451;BME280;4262;50.980;13.892;2023-02-26T07:55:18;50308.28;;;-142.97;24.49
8451;BME280;4262;50.980;13.892;2023-02-26T07:57:45;50306.34;;;-142.97;24.12
8451;BME280;4262;50.980;13.892;2023-02-26T08:00:13;50294.63;;;-142.97;24.94
8451;BME280;4262;50.980;13.892;2023-02-26T08:02:41;50302.44;;;-142.97;24.49
8451;BME280;4262;50.980;13.892;2023-02-26T08:05:09;50310.25;;;-142.97;24.80
8451;BME280;4262;50.980;13.892;2023-02-26T08:07:37;50294.63;;;-142.97;25.18
8451;BME280;4262;50.980;13.892;2023-02-26T08:10:04;50314.13;;;-142.97;24.46
8451;BME280;4262;50.980;13.892;2023-02-26T08:12:31;50273.19;;;-142.97;24.84
8451;BME280;4262;50.980;13.892;2023-02-26T08:14:58;50251.75;;;-142.97;25.62
8451;BME280;4262;50.980;13.892;2023-02-26T08:17:25;50255.66;;;-142.97;24.47
8451;BME280;4262;50.980;13.892;2023-02-26T08:19:53;50265.41;;;-142.97;24.55
8451;BME280;4262;50.980;13.892;2023-02-26T08:22:21;50292.69;;;-142.97;25.54
8451;BME280;4262;50.980;13.892;2023-02-26T08:24:48;50298.53;;;-142.97;25.16
8451;BME280;4262;50.980;13.892;2023-02-26T08:27:15;50300.50;;;-142.97;24.34
8451;BME280;4262;50.980;13.892;2023-02-26T08:29:42;50294.63;;;-142.97;24.92
8451;BME280;4262;50.980;13.892;2023-02-26T08:32:10;50321.94;;;-142.97;23.86
8451;BME280;4262;50.980;13.892;2023-02-26T08:34:37;50304.38;;;-142.97;24.46
8451;BME280;4262;50.980;13.892;2023-02-26T08:37:05;50290.75;;;-142.97;24.77
8451;BME280;4262;50.980;13.892;2023-02-26T08:39:33;50282.94;;;-142.97;25.10
8451;BME280;4262;50.980;13.892;2023-02-26T08:42:03;50281.00;;;-142.97;24.92
8451;BME280;4262;50.980;13.892;2023-02-26T08:44:30;50294.63;;;-142.97;24.92
8451;BME280;4262;50.980;13.892;2023-02-26T08:46:57;50275.16;;;-142.97;24.77
8451;BME280;4262;50.980;13.892;2023-02-26T08:49:24;50321.94;;;-142.97;24.42
8451;BME280;4262;50.980;13.892;2023-02-26T08:51:50;50290.75;;;-142.97;25.39
8451;BME280;4262;50.980;13.892;2023-02-26T08:54:18;50310.25;;;-142.97;27.40
8451;BME280;4262;50.980;13.892;2023-02-26T08:56:45;50263.44;;;-142.97;26.68
8451;BME280;4262;50.980;13.892;2023-02-26T08:59:14;50327.78;;;-142.97;26.11
8451;BME280;4262;50.980;13.892;2023-02-26T09:01:41;50310.25;;;-142.97;25.46
8451;BME280;4262;50.980;13.892;2023-02-26T09:04:07;50275.16;;;-142.97;26.34
8451;BME280;4262;50.980;13.892;2023-02-26T09:06:34;50282.94;;;-142.97;25.58
8451;BME280;4262;50.980;13.892;2023-02-26T09:09:03;50282.94;;;-142.97;25.87
8451;BME280;4262;50.980;13.892;2023-02-26T09:11:31;50318.03;;;-142.97;26.12
8451;BME280;4262;50.980;13.892;2023-02-26T09:13:58;50300.50;;;-142.97;25.77
8451;BME280;4262;50.980;13.892;2023-02-26T09:16:27;50286.84;;;-142.97;25.02
8451;BME280;4262;50.980;13.892;2023-02-26T09:18:54;50286.84;;;-142.97;24.46
8451;BME280;4262;50.980;13.892;2023-02-26T09:21:21;50288.78;;;-142.97;24.46
8451;BME280;4262;50.980;13.892;2023-02-26T09:23:48;50296.59;;;-142.97;25.25
8451;BME280;4262;50.980;13.892;2023-02-26T09:26:14;50323.88;;;-142.97;25.06
8451;BME280;4262;50.980;13.892;2023-02-26T09:28:42;50273.19;;;-142.97;24.33
8451;BME280;4262;50.980;13.892;2023-02-26T09:31:09;50281.00;;;-142.97;24.70
8451;BME280;4262;50.980;13.892;2023-02-26T09:33:36;50261.50;;;-142.97;24.31
8451;BME280;4262;50.980;13.892;2023-02-26T09:36:03;50271.25;;;-142.97;24.38
8451;BME280;4262;50.980;13.892;2023-02-26T09:38:32;50261.50;;;-142.97;23.79
8451;BME280;4262;50.980;13.892;2023-02-26T09:41:03;50284.91;;;-142.97;23.71
8451;BME280;4262;50.980;13.892;2023-02-26T09:46:30;50279.03;;;-142.97;23.25
8451;BME280;4262;50.980;13.892;2023-02-26T09:49:06;50282.94;;;-142.97;23.62
8451;BME280;4262;50.980;13.892;2023-02-26T09:51:36;50251.75;;;-142.97;23.30
8451;BME280;4262;50.980;13.892;2023-02-26T09:54:11;50298.53;;;-142.97;24.22
8451;BME280;4262;50.980;13.892;2023-02-26T09:56:40;50279.03;;;-142.97;24.00
8451;BME280;4262;50.980;13.892;2023-02-26T09:59:08;50284.91;;;-142.97;24.61
8451;BME280;4262;50.980;13.892;2023-02-26T10:01:40;50259.56;;;-142.97;23.78
8451;BME280;4262;50.980;13.892;2023-02-26T10:04:18;50257.59;;;-142.97;23.58
8451;BME280;4262;50.980;13.892;2023-02-26T10:06:58;50290.75;;;-142.97;23.78
8451;BME280;4262;50.980;13.892;2023-02-26T10:09:39;50277.09;;;-142.97;23.44
8451;BME280;4262;50.980;13.892;2023-02-26T10:12:13;50273.19;;;-142.97;23.47
8451;BME280;4262;50.980;13.892;2023-02-26T10:14:44;50282.94;;;-142.97;23.52
8451;BME280;4262;50.980;13.892;2023-02-26T10:17:21;50284.91;;;-142.97;23.08
8451;BME280;4262;50.980;13.892;2023-02-26T10:19:52;50290.75;;;-142.97;22.95
8451;BME280;4262;50.980;13.892;2023-02-26T10:22:25;50243.94;;;-142.97;22.69
8451;BME280;4262;50.980;13.892;2023-02-26T10:24:58;50294.63;;;-142.97;22.72
8451;BME280;4262;50.980;13.892;2023-02-26T10:27:41;50279.03;;;-142.97;22.84
8451;BME280;4262;50.980;13.892;2023-02-26T10:30:15;50271.25;;;-142.97;23.09
8451;BME280;4262;50.980;13.892;2023-02-26T10:32:55;50275.16;;;-142.97;22.87
8451;BME280;4262;50.980;13.892;2023-02-26T10:35:26;50277.09;;;-142.97;23.25
8451;BME280;4262;50.980;13.892;2023-02-26T10:37:57;50275.16;;;-142.97;23.16
8451;BME280;4262;50.980;13.892;2023-02-26T10:40:29;50290.75;;;-142.97;23.42
8451;BME280;4262;50.980;13.892;2023-02-26T10:42:59;50082.13;;;-142.97;22.99
8451;BME280;4262;50.980;13.892;2023-02-26T10:45:38;50171.81;;;-142.97;22.79
8451;BME280;4262;50.980;13.892;2023-02-26T10:48:26;50154.28;;;-142.97;21.71
8451;BME280;4262;50.980;13.892;2023-02-26T10:50:59;50068.50;;;-142.97;21.44
8451;BME280;4262;50.980;13.892;2023-02-26T10:53:27;50064.59;;;-142.97;20.74
8451;BME280;4262;50.980;13.892;2023-02-26T10:56:01;50023.66;;;-142.97;20.91
8451;BME280;4262;50.980;13.892;2023-02-26T10:58:30;50056.78;;;-142.97;20.35
8451;BME280;4262;50.980;13.892;2023-02-26T11:00:57;50224.47;;;-142.97;20.32
8451;BME280;4262;50.980;13.892;2023-02-26T11:03:30;50011.97;;;-142.97;20.91
8451;BME280;4262;50.980;13.892;2023-02-26T11:05:57;50035.34;;;-142.97;20.76
8451;BME280;4262;50.980;13.892;2023-02-26T11:08:26;50275.16;;;-142.97;21.45
8451;BME280;4262;50.980;13.892;2023-02-26T11:10:55;50232.25;;;-142.97;21.96
8451;BME280;4262;50.980;13.892;2023-02-26T11:13:25;50249.81;;;-142.97;21.39
8451;BME280;4262;50.980;13.892;2023-02-26T11:15:53;50273.19;;;-142.97;22.18
8451;BME280;4262;50.980;13.892;2023-02-26T11:18:24;50271.25;;;-142.97;22.74
8451;BME280;4262;50.980;13.892;2023-02-26T11:20:55;50300.50;;;-142.97;22.57
8451;BME280;4262;50.980;13.892;2023-02-26T11:23:28;50269.28;;;-142.97;22.60
8451;BME280;4262;50.980;13.892;2023-02-26T11:25:59;50273.19;;;-142.97;22.41
8451;BME280;4262;50.980;13.892;2023-02-26T11:28:30;50279.03;;;-142.97;22.72
8451;BME280;4262;50.980;13.892;2023-02-26T11:31:00;50282.94;;;-142.97;23.51
8451;BME280;4262;50.980;13.892;2023-02-26T11:33:33;50282.94;;;-142.97;23.42
8451;BME280;4262;50.980;13.892;2023-02-26T11:36:08;50263.44;;;-142.97;23.06
8451;BME280;4262;50.980;13.892;2023-02-26T11:38:37;50259.56;;;-142.97;23.39
8451;BME280;4262;50.980;13.892;2023-02-26T11:41:04;50296.59;;;-142.97;22.90
8451;BME280;4262;50.980;13.892;2023-02-26T11:43:36;50275.16;;;-142.97;22.34
8451;BME280;4262;50.980;13.892;2023-02-26T11:46:06;50275.16;;;-142.97;22.42
8451;BME280;4262;50.980;13.892;2023-02-26T11:48:38;50259.56;;;-142.97;22.64
8451;BME280;4262;50.980;13.892;2023-02-26T11:51:12;50259.56;;;-142.97;22.64
8451;BME280;4262;50.980;13.892;2023-02-26T11:53:42;50255.66;;;-142.97;21.97
8451;BME280;4262;50.980;13.892;2023-02-26T11:56:11;50275.16;;;-142.97;21.91
8451;BME280;4262;50.980;13.892;2023-02-26T11:58:43;50265.41;;;-142.97;22.67
8451;BME280;4262;50.980;13.892;2023-02-26T12:01:12;50269.28;;;-142.97;22.18
8451;BME280;4262;50.980;13.892;2023-02-26T12:03:43;50281.00;;;-142.97;22.04
8451;BME280;4262;50.980;13.892;2023-02-26T12:06:16;50298.53;;;-142.97;22.01
8451;BME280;4262;50.980;13.892;2023-02-26T12:08:42;50269.28;;;-142.97;22.21
8451;BME280;4262;50.980;13.892;2023-02-26T12:11:22;50329.72;;;-142.97;22.27
8451;BME280;4262;50.980;13.892;2023-02-26T12:14:06;50298.53;;;-142.97;22.52
8451;BME280;4262;50.980;13.892;2023-02-26T12:16:42;50288.78;;;-142.97;22.55
8451;BME280;4262;50.980;13.892;2023-02-26T12:19:19;50306.34;;;-142.97;22.46
8451;BME280;4262;50.980;13.892;2023-02-26T12:22:19;50310.25;;;-142.97;22.69
8451;BME280;4262;50.980;13.892;2023-02-26T12:25:03;50286.84;;;-142.97;22.43
8451;BME280;4262;50.980;13.892;2023-02-26T12:27:43;50302.44;;;-142.97;22.53
8451;BME280;4262;50.980;13.892;2023-02-26T12:30:26;50238.09;;;-142.97;22.31
8451;BME280;4262;50.980;13.892;2023-02-26T12:33:09;50269.28;;;-142.97;23.13
8451;BME280;4262;50.980;13.892;2023-02-26T12:35:59;50292.69;;;-142.97;22.28
8451;BME280;4262;50.980;13.892;2023-02-26T12:38:35;50288.78;;;-142.97;22.79
8451;BME280;4262;50.980;13.892;2023-02-26T12:41:33;50281.00;;;-142.97;22.84
8451;BME280;4262;50.980;13.892;2023-02-26T12:44:14;50329.72;;;-142.97;23.08
8451;BME280;4262;50.980;13.892;2023-02-26T12:46:53;50286.84;;;-142.97;22.61
8451;BME280;4262;50.980;13.892;2023-02-26T12:49:44;50282.94;;;-142.97;22.54
8451;BME280;4262;50.980;13.892;2023-02-26T12:52:30;50292.69;;;-142.97;22.47
8451;BME280;4262;50.980;13.892;2023-02-26T12:55:16;50284.91;;;-142.97;22.50
8451;BME280;4262;50.980;13.892;2023-02-26T12:58:01;50273.19;;;-142.97;22.58
8451;BME280;4262;50.980;13.892;2023-02-26T13:00:45;50286.84;;;-142.97;22.81
8451;BME280;4262;50.980;13.892;2023-02-26T13:03:42;50298.53;;;-142.97;22.86
8451;BME280;4262;50.980;13.892;2023-02-26T13:06:36;50286.84;;;-142.97;22.80
8451;BME280;4262;50.980;13.892;2023-02-26T13:09:15;50288.78;;;-142.97;22.93
8451;BME280;4262;50.980;13.892;2023-02-26T13:11:58;50321.94;;;-142.97;22.69
8451;BME280;4262;50.980;13.892;2023-02-26T13:14:37;50292.69;;;-142.97;23.77
8451;BME280;4262;50.980;13.892;2023-02-26T13:17:12;50281.00;;;-142.97;23.13
8451;BME280;4262;50.980;13.892;2023-02-26T13:19:45;50304.38;;;-142.97;23.15
8451;BME280;4262;50.980;13.892;2023-02-26T13:22:17;50310.25;;;-142.97;22.84
8451;BME280;4262;50.980;13.892;2023-02-26T13:24:51;50245.91;;;-142.97;22.22
8451;BME280;4262;50.980;13.892;2023-02-26T13:27:24;50269.28;;;-142.97;22.43
8451;BME280;4262;50.980;13.892;2023-02-26T13:30:09;50277.09;;;-142.97;22.61
8451;BME280;4262;50.980;13.892;2023-02-26T13:32:41;50279.03;;;-142.97;22.61
8451;BME280;4262;50.980;13.892;2023-02-26T13:35:19;50294.63;;;-142.97;22.60
8451;BME280;4262;50.980;13.892;2023-02-26T13:37:48;50288.78;;;-142.97;23.75
8451;BME280;4262;50.980;13.892;2023-02-26T13:40:44;50279.03;;;-142.97;23.41
8451;BME280;4262;50.980;13.892;2023-02-26T13:46:14;50279.03;;;-142.97;22.98
8451;BME280;4262;50.980;13.892;2023-02-26T13:48:52;50267.34;;;-142.97;23.22
8451;BME280;4262;50.980;13.892;2023-02-26T13:51:28;50279.03;;;-142.97;22.78
8451;BME280;4262;50.980;13.892;2023-02-26T13:53:58;50279.03;;;-142.97;22.88
8451;BME280;4262;50.980;13.892;2023-02-26T13:57:04;50263.44;;;-142.97;23.16
8451;BME280;4262;50.980;13.892;2023-02-26T13:59:44;50318.03;;;-142.97;24.02
8451;BME280;4262;50.980;13.892;2023-02-26T14:02:45;50279.03;;;-142.97;24.36
8451;BME280;4262;50.980;13.892;2023-02-26T14:08:26;50314.13;;;-142.97;24.19
8451;BME280;4262;50.980;13.892;2023-02-26T14:10:56;50286.84;;;-142.97;24.70
8451;BME280;4262;50.980;13.892;2023-02-26T14:13:34;50275.16;;;-142.97;24.12
8451;BME280;4262;50.980;13.892;2023-02-26T14:16:10;50298.53;;;-142.97;23.56
8451;BME280;4262;50.980;13.892;2023-02-26T14:18:41;50314.13;;;-142.97;23.85
8451;BME280;4262;50.980;13.892;2023-02-26T14:21:37;50308.28;;;-142.97;22.98
8451;BME280;4262;50.980;13.892;2023-02-26T14:24:12;50279.03;;;-142.97;23.10
8451;BME280;4262;50.980;13.892;2023-02-26T14:26:44;50320.00;;;-142.97;22.98
8451;BME280;4262;50.980;13.892;2023-02-26T14:29:15;50216.66;;;-142.97;23.15
8451;BME280;4262;50.980;13.892;2023-02-26T14:32:03;50146.47;;;-142.97;22.69
8451;BME280;4262;50.980;13.892;2023-02-26T14:34:32;50232.25;;;-142.97;23.20
8451;BME280;4262;50.980;13.892;2023-02-26T14:37:03;50240.06;;;-142.97;24.60
8451;BME280;4262;50.980;13.892;2023-02-26T14:39:35;50240.06;;;-142.97;23.39
8451;BME280;4262;50.980;13.892;2023-02-26T14:42:04;50171.81;;;-142.97;23.66
8451;BME280;4262;50.980;13.892;2023-02-26T14:44:36;50189.38;;;-142.97;23.85
8451;BME280;4262;50.980;13.892;2023-02-26T14:47:05;50156.22;;;-142.97;22.96
8451;BME280;4262;50.980;13.892;2023-02-26T14:49:35;50169.88;;;-142.97;22.14
8451;BME280;4262;50.980;13.892;2023-02-26T14:52:28;50288.78;;;-142.97;23.43
8451;BME280;4262;50.980;13.892;2023-02-26T14:55:17;50281.00;;;-142.97;24.83
8451;BME280;4262;50.980;13.892;2023-02-26T14:57:52;50259.56;;;-142.97;24.17
8451;BME280;4262;50.980;13.892;2023-02-26T15:00:31;50271.25;;;-142.97;24.07
8451;BME280;4262;50.980;13.892;2023-02-26T15:03:27;50277.09;;;-142.97;23.80
8451;BME280;4262;50.980;13.892;2023-02-26T15:06:11;50286.84;;;-142.97;29.01
8451;BME280;4262;50.980;13.892;2023-02-26T15:08:50;50286.84;;;-142.97;27.88
8451;BME280;4262;50.980;13.892;2023-02-26T15:14:52;50277.09;;;-142.97;26.20
8451;BME280;4262;50.980;13.892;2023-02-26T15:17:32;50298.53;;;-142.97;26.28
8451;BME280;4262;50.980;13.892;2023-02-26T15:20:17;50290.75;;;-142.97;25.38
8451;BME280;4262;50.980;13.892;2023-02-26T15:23:10;50281.00;;;-142.97;24.89
8451;BME280;4262;50.980;13.892;2023-02-26T15:25:43;50265.41;;;-142.97;24.72
8451;BME280;4262;50.980;13.892;2023-02-26T15:28:13;50304.38;;;-142.97;24.27
8451;BME280;4262;50.980;13.892;2023-02-26T15:30:46;50292.69;;;-142.97;24.37
8451;BME280;4262;50.980;13.892;2023-02-26T15:33:14;50292.69;;;-142.97;24.46
8451;BME280;4262;50.980;13.892;2023-02-26T15:35:47;50281.00;;;-142.97;24.70
8451;BME280;4262;50.980;13.892;2023-02-26T15:38:16;50286.84;;;-142.97;25.21
8451;BME280;4262;50.980;13.892;2023-02-26T15:40:44;50282.94;;;-142.97;25.71
8451;BME280;4262;50.980;13.892;2023-02-26T15:43:14;50294.63;;;-142.97;25.62
8451;BME280;4262;50.980;13.892;2023-02-26T15:45:44;50306.34;;;-142.97;25.03
8451;BME280;4262;50.980;13.892;2023-02-26T15:48:13;50259.56;;;-142.97;24.38
8451;BME280;4262;50.980;13.892;2023-02-26T15:50:43;50292.69;;;-142.97;24.07
8451;BME280;4262;50.980;13.892;2023-02-26T15:53:26;50282.94;;;-142.97;24.14
8451;BME280;4262;50.980;13.892;2023-02-26T15:55:55;50269.28;;;-142.97;24.25
8451;BME280;4262;50.980;13.892;2023-02-26T15:58:39;50277.09;;;-142.97;24.97
8451;BME280;4262;50.980;13.892;2023-02-26T16:01:14;50296.59;;;-142.97;24.34
8451;BME280;4262;50.980;13.892;2023-02-26T16:03:41;50286.84;;;-142.97;24.67
8451;BME280;4262;50.980;13.892;2023-02-26T16:06:11;50275.16;;;-142.97;24.22
8451;BME280;4262;50.980;13.892;2023-02-26T16:08:41;50308.28;;;-142.97;24.42
8451;BME280;4262;50.980;13.892;2023-02-26T16:11:11;50292.69;;;-142.97;24.55
8451;BME280;4262;50.980;13.892;2023-02-26T16:13:40;50288.78;;;-142.97;24.01
8451;BME280;4262;50.980;13.892;2023-02-26T16:16:10;50310.25;;;-142.97;23.65
8451;BME280;4262;50.980;13.892;2023-02-26T16:18:39;50306.34;;;-142.97;24.26
8451;BME280;4262;50.980;13.892;2023-02-26T16:21:08;50329.72;;;-142.97;24.72
8451;BME280;4262;50.980;13.892;2023-02-26T16:23:44;50292.69;;;-142.97;24.70
8451;BME280;4262;50.980;13.892;2023-02-26T16:26:15;50271.25;;;-142.97;24.06
8451;BME280;4262;50.980;13.892;2023-02-26T16:28:44;50320.00;;;-142.97;23.81
8451;BME280;4262;50.980;13.892;2023-02-26T16:31:18;50302.44;;;-142.97;23.39
8451;BME280;4262;50.980;13.892;2023-02-26T16:33:51;50308.28;;;-142.97;23.68
8451;BME280;4262;50.980;13.892;2023-02-26T16:36:19;50327.78;;;-142.97;23.32
8451;BME280;4262;50.980;13.892;2023-02-26T16:38:58;50335.59;;;-142.97;23.23
8451;BME280;4262;50.980;13.892;2023-02-26T16:41:29;50318.03;;;-142.97;23.32
8451;BME280;4262;50.980;13.892;2023-02-26T16:43:58;50298.53;;;-142.97;23.34
8451;BME280;4262;50.980;13.892;2023-02-26T16:46:32;50318.03;;;-142.97;23.34
8451;BME280;4262;50.980;13.892;2023-02-26T16:49:02;50321.94;;;-142.97;23.31
8451;BME280;4262;50.980;13.892;2023-02-26T16:51:31;50294.63;;;-142.97;23.05
8451;BME280;4262;50.980;13.892;2023-02-26T16:54:06;50302.44;;;-142.97;23.17
8451;BME280;4262;50.980;13.892;2023-02-26T16:56:37;50306.34;;;-142.97;23.37
8451;BME280;4262;50.980;13.892;2023-02-26T16:59:06;50286.84;;;-142.97;23.39
8451;BME280;4262;50.980;13.892;2023-02-26T17:01:39;50290.75;;;-142.97;23.28
8451;BME280;4262;50.980;13.892;2023-02-26T17:04:06;50329.72;;;-142.97;23.28
8451;BME280;4262;50.980;13.892;2023-02-26T17:06:37;50320.00;;;-142.97;23.65
8451;BME280;4262;50.980;13.892;2023-02-26T17:09:33;50296.59;;;-142.97;23.48
8451;BME280;4262;50.980;13.892;2023-02-26T17:12:13;50310.25;;;-142.97;23.55
8451;BME280;4262;50.980;13.892;2023-02-26T17:14:41;50306.34;;;-142.97;23.93
8451;BME280;4262;50.980;13.892;2023-02-26T17:17:09;50302.44;;;-142.97;24.02
8451;BME280;4262;50.980;13.892;2023-02-26T17:19:35;50300.50;;;-142.97;24.02
8451;BME280;4262;50.980;13.892;2023-02-26T17:22:03;50296.59;;;-142.97;23.99
8451;BME280;4262;50.980;13.892;2023-02-26T17:24:33;50312.19;;;-142.97;23.87
8451;BME280;4262;50.980;13.892;2023-02-26T17:27:02;50321.94;;;-142.97;23.39
8451;BME280;4262;50.980;13.892;2023-02-26T17:29:31;50306.34;;;-142.97;23.90
8451;BME280;4262;50.980;13.892;2023-02-26T17:32:00;50282.94;;;-142.97;24.08
8451;BME280;4262;50.980;13.892;2023-02-26T17:34:27;50292.69;;;-142.97;24.17
8451;BME280;4262;50.980;13.892;2023-02-26T17:36:55;50314.13;;;-142.97;24.19
8451;BME280;4262;50.980;13.892;2023-02-26T17:39:24;50294.63;;;-142.97;24.33
8451;BME280;4262;50.980;13.892;2023-02-26T17:41:52;50318.03;;;-142.97;24.57
8451;BME280;4262;50.980;13.892;2023-02-26T17:44:19;50282.94;;;-142.97;24.14
8451;BME280;4262;50.980;13.892;2023-02-26T17:46:46;50282.94;;;-142.97;24.19
8451;BME280;4262;50.980;13.892;2023-02-26T17:49:13;50298.53;;;-142.97;24.14
8451;BME280;4262;50.980;13.892;2023-02-26T17:51:42;50275.16;;;-142.97;24.26
8451;BME280;4262;50.980;13.892;2023-02-26T17:54:09;50255.66;;;-142.97;24.02
8451;BME280;4262;50.980;13.892;2023-02-26T17:56:36;50265.41;;;-142.97;23.61
8451;BME280;4262;50.980;13.892;2023-02-26T17:59:04;50345.34;;;-142.97;23.75
8451;BME280;4262;50.980;13.892;2023-02-26T18:01:31;50320.00;;;-142.97;23.77
8451;BME280;4262;50.980;13.892;2023-02-26T18:03:58;50277.09;;;-142.97;23.93
8451;BME280;4262;50.980;13.892;2023-02-26T18:06:31;50325.84;;;-142.97;23.66
8451;BME280;4262;50.980;13.892;2023-02-26T18:08:59;50294.63;;;-142.97;23.49
8451;BME280;4262;50.980;13.892;2023-02-26T18:11:27;50261.50;;;-142.97;23.61
8451;BME280;4262;50.980;13.892;2023-02-26T18:13:54;50279.03;;;-142.97;23.97
8451;BME280;4262;50.980;13.892;2023-02-26T18:16:30;50282.94;;;-142.97;24.67
8451;BME280;4262;50.980;13.892;2023-02-26T18:18:57;50296.59;;;-142.97;25.37
8451;BME280;4262;50.980;13.892;2023-02-26T18:21:24;50281.00;;;-142.97;24.04
8451;BME280;4262;50.980;13.892;2023-02-26T18:23:51;50288.78;;;-142.97;24.05
8451;BME280;4262;50.980;13.892;2023-02-26T18:26:22;50275.16;;;-142.97;24.21
8451;BME280;4262;50.980;13.892;2023-02-26T18:28:52;50318.03;;;-142.97;23.99
8451;BME280;4262;50.980;13.892;2023-02-26T18:31:24;50275.16;;;-142.97;24.09
8451;BME280;4262;50.980;13.892;2023-02-26T18:33:57;50306.34;;;-142.97;25.18
8451;BME280;4262;50.980;13.892;2023-02-26T18:36:26;50304.38;;;-142.97;24.46
8451;BME280;4262;50.980;13.892;2023-02-26T18:38:59;50286.84;;;-142.97;24.41
8451;BME280;4262;50.980;13.892;2023-02-26T18:41:28;50302.44;;;-142.97;24.04
8451;BME280;4262;50.980;13.892;2023-02-26T18:43:57;50335.59;;;-142.97;23.90
8451;BME280;4262;50.980;13.892;2023-02-26T18:46:25;50306.34;;;-142.97;24.09
8451;BME280;4262;50.980;13.892;2023-02-26T18:48:54;50288.78;;;-142.97;23.99
8451;BME280;4262;50.980;13.892;2023-02-26T18:51:23;50277.09;;;-142.97;23.91
8451;BME280;4262;50.980;13.892;2023-02-26T18:53:51;50294.63;;;-142.97;23.83
8451;BME280;4262;50.980;13.892;2023-02-26T18:56:18;50300.50;;;-142.97;23.90
8451;BME280;4262;50.980;13.892;2023-02-26T18:58:45;50316.09;;;-142.97;23.94
8451;BME280;4262;50.980;13.892;2023-02-26T19:01:12;50304.38;;;-142.97;23.69
8451;BME280;4262;50.980;13.892;2023-02-26T19:03:40;50279.03;;;-142.97;23.39
8451;BME280;4262;50.980;13.892;2023-02-26T19:06:07;50310.25;;;-142.97;23.45
8451;BME280;4262;50.980;13.892;2023-02-26T19:08:34;50267.34;;;-142.97;23.45
8451;BME280;4262;50.980;13.892;2023-02-26T19:11:02;50279.03;;;-142.97;23.87
8451;BME280;4262;50.980;13.892;2023-02-26T19:13:29;50290.75;;;-142.97;23.60
8451;BME280;4262;50.980;13.892;2023-02-26T19:15:55;50308.28;;;-142.97;23.26
8451;BME280;4262;50.980;13.892;2023-02-26T19:18:22;50300.50;;;-142.97;23.55
8451;BME280;4262;50.980;13.892;2023-02-26T19:20:50;50314.13;;;-142.97;23.79
8451;BME280;4262;50.980;13.892;2023-02-26T19:23:17;50329.72;;;-142.97;24.32
8451;BME280;4262;50.980;13.892;2023-02-26T19:25:44;50271.25;;;-142.97;24.36
8451;BME280;4262;50.980;13.892;2023-02-26T19:28:11;50327.78;;;-142.97;23.66